createdAt,value
2019-04-07T00:01:45.038Z,60.73
2019-04-07T00:04:13.459Z,55.97
2019-04-07T00:06:41.882Z,57.57
2019-04-07T00:09:10.812Z,57.93
2019-04-07T00:11:39.675Z,59.63
2019-04-07T00:14:08.349Z,57.00
2019-04-07T00:16:37.312Z,58.67
2019-04-07T00:19:05.725Z,58.97
2019-04-07T00:21:34.096Z,59.20
2019-04-07T00:24:02.539Z,58.47
2019-04-07T00:26:31.155Z,58.70
2019-04-07T00:28:59.969Z,57.97
2019-04-07T00:31:28.924Z,58.33
2019-04-07T00:33:58.155Z,57.40
2019-04-07T00:36:26.638Z,59.73
2019-04-07T00:38:55.038Z,59.67
2019-04-07T00:41:23.477Z,59.13
2019-04-07T00:43:51.903Z,61.63
2019-04-07T00:46:20.304Z,62.43
2019-04-07T00:48:48.711Z,58.63
2019-04-07T00:51:17.831Z,57.57
2019-04-07T00:53:46.385Z,58.53
2019-04-07T00:56:14.699Z,57.43
2019-04-07T00:58:43.456Z,59.10
2019-04-07T01:01:14.035Z,59.97
2019-04-07T01:03:43.036Z,57.57
2019-04-07T01:06:11.570Z,57.77
2019-04-07T01:08:40.036Z,58.60
2019-04-07T01:11:08.870Z,59.73
2019-04-07T01:13:37.376Z,59.60
2019-04-07T01:16:05.750Z,58.17
2019-04-07T01:18:34.146Z,58.90
2019-04-07T01:21:02.569Z,60.87
2019-04-07T01:23:31.430Z,59.50
2019-04-07T01:25:59.896Z,56.40
2019-04-07T01:28:28.626Z,59.27
2019-04-07T01:30:56.978Z,59.57
2019-04-07T01:33:25.658Z,58.97
2019-04-07T01:35:54.877Z,57.97
2019-04-07T01:38:23.278Z,59.07
2019-04-07T01:41:12.140Z,60.00
2019-04-07T01:43:44.979Z,57.53
2019-04-07T01:46:20.640Z,59.93
2019-04-07T01:49:06.660Z,57.67
2019-04-07T01:51:43.226Z,59.50
2019-04-07T01:54:29.628Z,57.40
2019-04-07T01:57:02.982Z,57.97
2019-04-07T01:59:39.280Z,57.20
2019-04-07T02:02:18.921Z,58.10
2019-04-07T02:05:07.571Z,58.43
2019-04-07T02:07:50.147Z,61.03
2019-04-07T02:10:29.150Z,58.90
2019-04-07T02:13:05.234Z,60.70
2019-04-07T02:15:52.675Z,59.57
2019-04-07T02:18:23.444Z,58.77
2019-04-07T02:20:54.191Z,58.57
2019-04-07T02:23:27.233Z,61.63
2019-04-07T02:26:07.022Z,60.00
2019-04-07T02:28:37.254Z,59.97
2019-04-07T02:31:17.144Z,60.83
2019-04-07T02:33:50.012Z,60.47
2019-04-07T02:36:28.415Z,61.63
2019-04-07T02:38:58.192Z,61.93
2019-04-07T02:41:34.516Z,60.43
2019-04-07T02:44:04.925Z,60.30
2019-04-07T02:46:38.229Z,63.50
2019-04-07T02:49:12.313Z,61.13
2019-04-07T02:51:43.442Z,62.70
2019-04-07T02:54:30.262Z,61.83
2019-04-07T02:57:09.968Z,61.90
2019-04-07T02:59:56.268Z,60.87
2019-04-07T03:02:32.194Z,59.67
2019-04-07T03:05:14.295Z,59.70
2019-04-07T03:07:54.926Z,62.03
2019-04-07T03:10:41.549Z,63.30
2019-04-07T03:13:24.318Z,61.83
2019-04-07T03:15:57.761Z,62.40
2019-04-07T03:18:37.421Z,61.23
2019-04-07T03:21:25.336Z,58.63
2019-04-07T03:23:58.563Z,61.93
2019-04-07T03:26:34.583Z,62.47
2019-04-07T03:29:10.313Z,66.37
2019-04-07T03:31:41.070Z,62.90
2019-04-07T03:34:18.974Z,65.67
2019-04-07T03:37:19.113Z,62.73
2019-04-07T03:39:30.234Z,66.07
2019-04-07T03:42:17.819Z,64.07
2019-04-07T03:44:51.182Z,65.20
2019-04-07T03:47:27.014Z,63.20
2019-04-07T03:50:03.379Z,64.80
2019-04-07T03:52:51.820Z,65.20
2019-04-07T03:55:22.733Z,66.20
2019-04-07T03:58:09.873Z,66.47
2019-04-07T04:00:55.113Z,62.60
2019-04-07T04:03:25.689Z,64.50
2019-04-07T04:05:55.844Z,66.43
2019-04-07T04:08:38.295Z,65.30
2019-04-07T04:11:11.644Z,65.67
2019-04-07T04:13:42.329Z,68.20
2019-04-07T04:16:10.774Z,64.50
2019-04-07T04:18:39.366Z,66.93
2019-04-07T04:21:07.815Z,66.90
2019-04-07T04:23:36.217Z,67.53
2019-04-07T04:26:04.632Z,67.27
2019-04-07T04:28:33.096Z,66.53
2019-04-07T04:31:01.504Z,67.17
2019-04-07T04:33:30.976Z,67.03
2019-04-07T04:36:00.462Z,66.70
2019-04-07T04:38:29.786Z,64.33
2019-04-07T04:40:58.348Z,66.27
2019-04-07T04:43:27.543Z,67.23
2019-04-07T04:45:56.758Z,68.27
2019-04-07T04:48:25.926Z,68.37
2019-04-07T04:50:54.447Z,66.80
2019-04-07T04:53:24.083Z,67.63
2019-04-07T04:55:53.432Z,67.10
2019-04-07T04:58:22.748Z,68.43
2019-04-07T05:00:52.328Z,68.77
2019-04-07T05:03:21.569Z,68.20
2019-04-07T05:05:49.989Z,67.27
2019-04-07T05:08:18.412Z,68.63
2019-04-07T05:10:47.327Z,68.67
2019-04-07T05:13:15.999Z,66.27
2019-04-07T05:15:44.593Z,69.40
2019-04-07T05:18:13.086Z,70.33
2019-04-07T05:20:42.032Z,70.13
2019-04-07T05:23:11.018Z,67.17
2019-04-07T05:25:39.427Z,66.40
2019-04-07T05:28:07.824Z,64.03
2019-04-07T05:30:36.558Z,66.33
2019-04-07T05:33:05.545Z,66.07
2019-04-07T05:35:34.208Z,63.73
2019-04-07T05:38:04.977Z,64.77
2019-04-07T05:40:32.716Z,63.23
2019-04-07T05:43:01.108Z,65.80
2019-04-07T05:45:29.506Z,63.90
2019-04-07T05:47:57.922Z,63.40
2019-04-07T05:50:27.436Z,62.27
2019-04-07T05:52:56.540Z,62.03
2019-04-07T05:55:24.965Z,60.60
2019-04-07T05:57:53.376Z,60.20
2019-04-07T06:00:21.860Z,62.17
2019-04-07T06:02:50.786Z,62.07
2019-04-07T06:05:19.660Z,59.83
2019-04-07T06:07:48.085Z,58.30
2019-04-07T06:10:16.674Z,56.83
2019-04-07T06:12:47.369Z,60.03
2019-04-07T06:15:19.247Z,59.63
2019-04-07T06:17:45.798Z,57.53
2019-04-07T06:20:15.801Z,57.20
2019-04-07T06:22:46.648Z,57.10
2019-04-07T06:25:14.303Z,60.10
2019-04-07T06:27:45.248Z,57.57
2019-04-07T06:30:14.214Z,57.10
2019-04-07T06:32:44.048Z,55.83
2019-04-07T06:35:13.945Z,54.67
2019-04-07T06:37:42.953Z,57.23
2019-04-07T06:40:12.247Z,56.97
2019-04-07T06:42:40.844Z,56.57
2019-04-07T06:45:10.930Z,55.77
2019-04-07T06:47:40.930Z,55.27
2019-04-07T06:50:25.903Z,54.87
2019-04-07T06:52:56.598Z,54.97
2019-04-07T06:55:42.855Z,54.90
2019-04-07T06:58:28.813Z,56.20
2019-04-07T07:01:03.179Z,55.67
2019-04-07T07:03:43.075Z,55.80
2019-04-07T07:06:17.384Z,53.90
2019-04-07T07:09:06.254Z,55.47
2019-04-07T07:11:40.854Z,53.07
2019-04-07T07:14:08.054Z,52.27
2019-04-07T07:16:54.509Z,52.53
2019-04-07T07:19:40.169Z,52.73
2019-04-07T07:22:17.365Z,52.70
2019-04-07T07:24:47.160Z,50.33
2019-04-07T07:27:16.403Z,51.53
2019-04-07T07:29:45.833Z,50.57
2019-04-07T07:32:14.929Z,50.13
2019-04-07T07:34:43.448Z,50.77
2019-04-07T07:37:11.849Z,50.07
2019-04-07T07:39:43.765Z,50.50
2019-04-07T07:42:10.554Z,50.20
2019-04-07T07:44:39.828Z,48.80
2019-04-07T07:47:09.048Z,48.87
2019-04-07T07:49:40.283Z,50.77
2019-04-07T07:52:07.572Z,48.40
2019-04-07T07:54:36.778Z,48.23
2019-04-07T07:57:05.293Z,47.53
2019-04-07T07:59:37.877Z,49.27
2019-04-07T08:02:03.842Z,48.43
2019-04-07T08:04:32.212Z,48.70
2019-04-07T08:07:02.363Z,46.17
2019-04-07T08:09:30.716Z,47.10
2019-04-07T08:12:02.439Z,45.53
2019-04-07T08:14:29.346Z,44.27
2019-04-07T08:17:00.163Z,48.03
2019-04-07T08:19:30.320Z,46.77
2019-04-07T08:21:58.435Z,43.87
2019-04-07T08:24:27.226Z,43.37
2019-04-07T08:26:57.117Z,44.77
2019-04-07T08:29:25.815Z,42.23
2019-04-07T08:31:55.427Z,41.63
2019-04-07T08:34:24.346Z,43.87
2019-04-07T08:36:53.028Z,41.33
2019-04-07T08:39:25.641Z,40.33
2019-04-07T08:41:51.814Z,40.43
2019-04-07T08:44:20.478Z,39.87
2019-04-07T08:46:49.638Z,39.17
2019-04-07T08:49:18.138Z,40.10
2019-04-07T08:51:46.521Z,40.50
2019-04-07T08:54:17.605Z,38.00
2019-04-07T08:56:45.695Z,39.50
2019-04-07T08:59:16.968Z,38.37
2019-04-07T09:01:44.653Z,39.20
2019-04-07T09:04:15.080Z,40.33
2019-04-07T09:06:43.824Z,40.20
2019-04-07T09:09:12.292Z,39.73
2019-04-07T09:11:41.621Z,40.33
2019-04-07T09:14:10.920Z,38.53
2019-04-07T09:16:46.732Z,39.17
2019-04-07T09:19:19.257Z,40.13
2019-04-07T09:22:04.429Z,39.10
2019-04-07T09:24:50.825Z,39.20
2019-04-07T09:27:24.603Z,39.80
2019-04-07T09:30:10.180Z,39.13
2019-04-07T09:32:41.634Z,37.83
2019-04-07T09:35:14.465Z,37.93
2019-04-07T09:37:53.348Z,37.43
2019-04-07T09:40:22.229Z,37.10
2019-04-07T09:42:52.956Z,38.27
2019-04-07T09:45:39.552Z,37.40
2019-04-07T09:48:12.420Z,36.20
2019-04-07T09:50:43.105Z,38.00
2019-04-07T09:53:13.795Z,38.77
2019-04-07T09:55:51.532Z,39.27
2019-04-07T09:58:30.885Z,35.97
2019-04-07T10:01:06.098Z,37.30
2019-04-07T10:03:35.473Z,38.23
2019-04-07T10:06:12.961Z,38.07
2019-04-07T10:08:49.533Z,37.50
2019-04-07T10:11:19.774Z,34.57
2019-04-07T10:14:06.334Z,36.07
2019-04-07T10:16:39.478Z,34.53
2019-04-07T10:19:12.988Z,34.60
2019-04-07T10:21:49.770Z,36.60
2019-04-07T10:24:19.924Z,34.27
2019-04-07T10:27:05.829Z,30.50
2019-04-07T10:29:48.162Z,33.33
2019-04-07T10:32:25.802Z,32.87
2019-04-07T10:35:12.568Z,32.53
2019-04-07T10:37:42.856Z,32.57
2019-04-07T10:40:27.526Z,31.53
2019-04-07T10:43:09.632Z,30.57
2019-04-07T10:45:45.924Z,30.20
2019-04-07T10:48:16.069Z,29.10
2019-04-07T10:50:58.093Z,29.60
2019-04-07T10:53:30.333Z,30.90
2019-04-07T10:56:16.519Z,28.63
2019-04-07T10:58:47.199Z,28.50
2019-04-07T11:01:20.083Z,30.93
2019-04-07T11:03:54.766Z,28.03
2019-04-07T11:06:28.413Z,29.50
2019-04-07T11:09:16.814Z,28.90
2019-04-07T11:11:48.902Z,27.33
2019-04-07T11:14:35.054Z,27.80
2019-04-07T11:17:06.414Z,28.13
2019-04-07T11:19:39.779Z,27.93
2019-04-07T11:22:15.920Z,27.97
2019-04-07T11:24:48.943Z,27.67
2019-04-07T11:27:35.419Z,27.03
2019-04-07T11:30:10.315Z,26.53
2019-04-07T11:32:43.464Z,24.73
2019-04-07T11:35:19.570Z,23.87
2019-04-07T11:38:01.515Z,24.27
2019-04-07T11:40:48.981Z,22.90
2019-04-07T11:43:15.277Z,21.53
2019-04-07T11:46:00.227Z,21.83
2019-04-07T11:48:26.022Z,22.70
2019-04-07T11:51:02.096Z,20.67
2019-04-07T11:53:32.963Z,21.33
2019-04-07T11:56:11.277Z,21.07
2019-04-07T11:58:40.885Z,19.83
2019-04-07T12:01:27.076Z,16.93
2019-04-07T12:03:59.992Z,15.80
2019-04-07T12:06:30.045Z,12.27
2019-04-07T12:09:18.357Z,10.70
2019-04-07T12:11:48.415Z,9.87
2019-04-07T12:14:21.179Z,10.73
2019-04-07T12:17:04.778Z,10.30
2019-04-07T12:19:40.994Z,9.93
2019-04-07T12:22:14.309Z,9.43
2019-04-07T12:24:46.836Z,10.00
2019-04-07T12:27:17.255Z,9.80
2019-04-07T12:29:47.366Z,10.53
2019-04-07T12:32:23.892Z,10.03
2019-04-07T12:34:56.637Z,10.03
2019-04-07T12:37:42.030Z,10.50
2019-04-07T12:40:20.496Z,10.70
2019-04-07T12:42:51.257Z,11.00
2019-04-07T12:45:37.038Z,11.27
2019-04-07T12:48:10.266Z,10.90
2019-04-07T12:50:40.331Z,10.97
2019-04-07T12:53:19.721Z,12.00
2019-04-07T12:56:06.993Z,13.80
2019-04-07T12:58:55.952Z,11.93
2019-04-07T13:01:26.049Z,13.97
2019-04-07T13:04:13.262Z,13.13
2019-04-07T13:06:49.421Z,13.70
2019-04-07T13:09:32.064Z,13.63
2019-04-07T13:12:20.422Z,12.37
2019-04-07T13:14:50.985Z,10.60
2019-04-07T13:17:38.124Z,10.70
2019-04-07T13:20:08.585Z,10.07
2019-04-07T13:25:53.165Z,10.83
2019-04-07T13:28:21.690Z,11.40
2019-04-07T13:31:00.458Z,11.63
2019-04-07T13:33:46.875Z,12.70
2019-04-07T13:36:20.265Z,11.60
2019-04-07T13:38:56.290Z,12.50
2019-04-07T13:41:42.577Z,11.13
2019-04-07T13:44:19.734Z,12.17
2019-04-07T13:47:07.268Z,13.07
2019-04-07T13:49:50.177Z,11.70
2019-04-07T13:52:23.210Z,12.73
2019-04-07T13:55:07.701Z,12.97
2019-04-07T13:57:40.347Z,13.30
2019-04-07T14:00:17.397Z,14.27
2019-04-07T14:02:47.849Z,13.17
2019-04-07T14:05:33.163Z,13.83
2019-04-07T14:08:27.025Z,13.40
2019-04-07T14:10:58.249Z,14.10
2019-04-07T14:13:28.489Z,12.77
2019-04-07T14:15:58.677Z,13.73
2019-04-07T14:18:50.161Z,14.20
2019-04-07T14:21:30.712Z,14.03
2019-04-07T14:24:01.654Z,13.53
2019-04-07T14:26:38.857Z,12.37
2019-04-07T14:29:15.275Z,12.50
2019-04-07T14:32:02.067Z,12.77
2019-04-07T14:34:39.111Z,13.00
2019-04-07T14:37:25.290Z,11.77
2019-04-07T14:39:55.463Z,12.37
2019-04-07T14:42:26.323Z,11.97
2019-04-07T14:45:02.364Z,11.70
2019-04-07T14:47:32.486Z,10.50
2019-04-07T14:50:02.506Z,9.97
2019-04-07T14:52:48.208Z,10.40
2019-04-07T14:55:53.828Z,10.17
2019-04-07T14:58:38.832Z,10.20
2019-04-07T15:01:14.735Z,11.13
2019-04-07T15:03:43.824Z,10.23
2019-04-07T15:06:12.270Z,10.63
2019-04-07T15:08:43.086Z,10.70
2019-04-07T15:11:29.742Z,10.83
2019-04-07T15:14:00.655Z,10.10
2019-04-07T15:16:28.574Z,11.00
2019-04-07T15:18:56.996Z,11.07
2019-04-07T15:21:25.435Z,11.33
2019-04-07T15:23:53.799Z,11.47
2019-04-07T15:26:22.203Z,10.90
2019-04-07T15:28:50.600Z,11.27
2019-04-07T15:31:19.523Z,11.63
2019-04-07T15:33:49.733Z,11.40
2019-04-07T15:36:19.561Z,11.97
2019-04-07T15:38:48.612Z,11.53
2019-04-07T15:41:19.059Z,11.20
2019-04-07T15:43:47.150Z,11.03
2019-04-07T15:46:18.129Z,11.77
2019-04-07T15:48:46.502Z,11.40
2019-04-07T15:51:14.994Z,10.53
2019-04-07T15:53:48.469Z,11.73
2019-04-07T15:56:16.162Z,10.50
2019-04-07T15:58:43.460Z,12.77
2019-04-07T16:01:12.217Z,11.87
2019-04-07T16:03:40.550Z,14.80
2019-04-07T16:06:09.675Z,12.37
2019-04-07T16:08:39.391Z,11.10
2019-04-07T16:11:08.115Z,12.00
2019-04-07T16:13:36.495Z,10.93
2019-04-07T16:16:05.784Z,11.17
2019-04-07T16:18:36.883Z,11.37
2019-04-07T16:21:07.180Z,11.97
2019-04-07T16:23:35.180Z,11.43
2019-04-07T16:26:03.628Z,12.20
2019-04-07T16:28:33.034Z,11.73
2019-04-07T16:31:01.596Z,11.47
2019-04-07T16:33:32.570Z,11.13
2019-04-07T16:36:00.097Z,11.13
2019-04-07T16:38:30.140Z,11.17
2019-04-07T16:40:58.827Z,12.03
2019-04-07T16:43:28.644Z,11.60
2019-04-07T16:45:57.264Z,11.93
2019-04-07T16:48:26.114Z,12.23
2019-04-07T16:50:55.299Z,12.43
2019-04-07T16:53:24.746Z,12.20
2019-04-07T16:55:55.573Z,12.37
2019-04-07T16:58:23.215Z,11.73
2019-04-07T17:00:51.800Z,11.80
2019-04-07T17:03:20.493Z,11.40
2019-04-07T17:05:48.995Z,10.97
2019-04-07T17:08:19.672Z,11.20
2019-04-07T17:10:47.433Z,12.00
2019-04-07T17:13:20.552Z,11.33
2019-04-07T17:15:45.885Z,11.00
2019-04-07T17:18:36.758Z,11.17
2019-04-07T17:21:09.412Z,11.93
2019-04-07T17:23:39.630Z,11.93
2019-04-07T17:26:08.186Z,11.77
2019-04-07T17:28:36.603Z,12.53
2019-04-07T17:31:05.845Z,11.87
2019-04-07T17:33:36.831Z,11.60
2019-04-07T17:36:04.523Z,11.83
2019-04-07T17:38:38.135Z,12.33
2019-04-07T17:41:08.277Z,11.67
2019-04-07T17:43:51.497Z,11.07
2019-04-07T17:46:16.667Z,11.50
2019-04-07T17:48:58.373Z,12.60
2019-04-07T17:51:36.345Z,13.17
2019-04-07T17:54:07.898Z,13.10
2019-04-07T17:56:54.973Z,13.10
2019-04-07T17:59:35.078Z,12.73
2019-04-07T18:02:17.846Z,13.40
2019-04-07T18:04:51.234Z,12.97
2019-04-07T18:07:20.120Z,13.23
2019-04-07T18:09:53.407Z,13.07
2019-04-07T18:12:45.426Z,13.07
2019-04-07T18:15:19.115Z,12.67
2019-04-07T18:18:01.672Z,12.87
2019-04-07T18:20:44.450Z,14.27
2019-04-07T18:23:26.657Z,13.27
2019-04-07T18:25:56.832Z,12.93
2019-04-07T18:28:39.182Z,13.77
2019-04-07T18:31:27.478Z,13.73
2019-04-07T18:34:14.240Z,13.93
2019-04-07T18:37:00.813Z,13.60
2019-04-07T18:39:48.929Z,13.07
2019-04-07T18:42:18.281Z,12.97
2019-04-07T18:44:48.341Z,12.53
2019-04-07T18:47:24.349Z,13.27
2019-04-07T18:50:10.415Z,12.70
2019-04-07T18:52:40.948Z,14.07
2019-04-07T18:55:18.082Z,13.10
2019-04-07T18:58:03.262Z,14.07
2019-04-07T19:00:39.253Z,12.87
2019-04-07T19:03:12.017Z,14.37
2019-04-07T19:05:58.625Z,14.67
2019-04-07T19:08:37.880Z,14.03
2019-04-07T19:11:14.794Z,13.47
2019-04-07T19:13:39.618Z,13.80
2019-04-07T19:16:18.878Z,13.87
2019-04-07T19:18:50.589Z,14.17
2019-04-07T19:21:20.900Z,12.87
2019-04-07T19:23:54.006Z,13.53
2019-04-07T19:26:39.012Z,13.73
2019-04-07T19:29:12.034Z,14.00
2019-04-07T19:31:43.446Z,14.03
2019-04-07T19:34:31.804Z,13.70
2019-04-07T19:37:17.281Z,13.83
2019-04-07T19:40:01.222Z,14.17
2019-04-07T19:42:34.920Z,12.90
2019-04-07T19:45:07.082Z,15.27
2019-04-07T19:47:37.243Z,13.70
2019-04-07T19:50:14.928Z,13.23
2019-04-07T19:53:04.972Z,11.83
2019-04-07T19:55:44.442Z,12.33
2019-04-07T19:58:20.448Z,12.10
2019-04-07T20:00:54.331Z,12.07
2019-04-07T20:03:31.897Z,11.70
2019-04-07T20:06:23.061Z,10.63
2019-04-07T20:09:11.189Z,11.80
2019-04-07T20:11:55.977Z,10.70
2019-04-07T20:14:31.823Z,11.03
2019-04-07T20:17:04.564Z,12.10
2019-04-07T20:19:53.575Z,11.00
2019-04-07T20:22:27.185Z,10.70
2019-04-07T20:25:17.112Z,11.83
2019-04-07T20:28:00.660Z,11.40
2019-04-07T20:30:49.537Z,11.20
2019-04-07T20:33:33.070Z,11.30
2019-04-07T20:36:23.872Z,11.37
2019-04-07T20:39:01.782Z,10.80
2019-04-07T20:41:48.354Z,11.43
2019-04-07T20:44:35.649Z,11.90
2019-04-07T20:47:22.974Z,10.63
2019-04-07T20:49:56.746Z,11.60
2019-04-07T20:52:38.697Z,12.10
2019-04-07T20:55:17.553Z,12.50
2019-04-07T20:57:53.914Z,11.73
2019-04-07T21:00:38.265Z,12.50
2019-04-07T21:03:26.789Z,12.90
2019-04-07T21:06:03.295Z,11.30
2019-04-07T21:08:36.258Z,12.40
2019-04-07T21:11:15.320Z,12.27
2019-04-07T21:13:48.293Z,11.60
2019-04-07T21:16:34.407Z,12.87
2019-04-07T21:19:07.749Z,13.10
2019-04-07T21:21:41.650Z,12.60
2019-04-07T21:24:19.026Z,11.87
2019-04-07T21:26:49.114Z,12.60
2019-04-07T21:29:19.344Z,13.00
2019-04-07T21:31:49.595Z,13.23
2019-04-07T21:34:19.642Z,13.07
2019-04-07T21:37:04.709Z,13.00
2019-04-07T21:39:43.812Z,13.67
2019-04-07T21:42:19.321Z,13.00
2019-04-07T21:44:48.773Z,13.03
2019-04-07T21:47:34.122Z,13.40
2019-04-07T21:50:07.484Z,13.43
2019-04-07T21:52:35.866Z,14.13
2019-04-07T21:55:09.877Z,13.57
2019-04-07T21:57:53.606Z,13.57
2019-04-07T22:00:31.628Z,12.87
2019-04-07T22:03:15.827Z,14.07
2019-04-07T22:05:44.156Z,13.43
2019-04-07T22:08:32.677Z,13.17
2019-04-07T22:11:01.536Z,13.80
2019-04-07T22:13:32.860Z,13.73
2019-04-07T22:16:02.925Z,13.77
2019-04-07T22:18:30.076Z,13.27
2019-04-07T22:20:59.177Z,13.27
2019-04-07T22:23:29.967Z,14.23
2019-04-07T22:25:57.920Z,12.70
2019-04-07T22:28:28.508Z,13.27
2019-04-07T22:30:57.264Z,13.17
2019-04-07T22:33:28.674Z,14.13
2019-04-07T22:35:55.823Z,13.13
2019-04-07T22:38:25.244Z,12.73
2019-04-07T22:40:54.334Z,13.27
2019-04-07T22:43:22.939Z,12.93
2019-04-07T22:45:59.295Z,12.53
2019-04-07T22:48:25.276Z,12.43
2019-04-07T22:50:51.823Z,13.27
2019-04-07T22:53:22.553Z,12.33
2019-04-07T22:55:50.590Z,13.87
2019-04-07T22:58:18.972Z,13.43
2019-04-07T23:00:47.617Z,12.83
2019-04-07T23:03:16.023Z,13.20
2019-04-07T23:05:44.442Z,13.10
2019-04-07T23:08:12.856Z,14.40
2019-04-07T23:10:42.158Z,12.90
2019-04-07T23:13:11.225Z,12.53
2019-04-07T23:15:44.325Z,13.03
2019-04-07T23:18:09.722Z,12.33
2019-04-07T23:20:39.680Z,12.87
2019-04-07T23:23:08.860Z,13.67
2019-04-07T23:25:38.316Z,12.90
2019-04-07T23:28:07.022Z,12.90
2019-04-07T23:30:35.486Z,12.83
2019-04-07T23:33:04.208Z,12.70
2019-04-07T23:35:32.991Z,13.90
2019-04-07T23:38:01.600Z,14.23
2019-04-07T23:40:30.165Z,14.20
2019-04-07T23:42:58.682Z,13.37
2019-04-07T23:45:27.392Z,14.10
2019-04-07T23:47:55.907Z,12.90
2019-04-07T23:50:25.156Z,12.70
2019-04-07T23:52:53.888Z,13.10
2019-04-07T23:55:23.961Z,13.80
2019-04-07T23:57:52.436Z,13.30
